Time;durP1;ratioP1;P1;durP2;ratioP2;P2;SDS_P1;SDS_P2;PMS_P1;PMS_P2;Temp;Humidity;BMP_temperature;BMP_pressure;BME280_temperature;BME280_humidity;BME280_pressure;Samples;Min_cycle;Max_cycle;Signal;HPM_P1;HPM_P2
2022/04/03 00:00:37;;;;;;;2.83;2.10;;;;;;;15.55;36.57;92751.84;5031610;28;20045;-88
2022/04/03 00:03:04;;;;;;;3.42;2.22;;;;;;;15.56;36.59;92755.31;5015122;28;20044;-88
2022/04/03 00:05:33;;;;;;;3.55;2.20;;;;;;;15.53;36.62;92753.59;5031514;28;20041;-88
2022/04/03 00:07:59;;;;;;;3.22;2.53;;;;;;;15.55;36.32;92760.00;5016139;28;20041;-89
2022/04/03 00:10:24;;;;;;;2.35;1.92;;;;;;;15.53;36.52;92754.31;5030758;28;20083;-89
2022/04/03 00:12:50;;;;;;;3.28;2.47;;;;;;;15.53;36.43;92753.59;5046306;28;20040;-88
2022/04/03 00:15:17;;;;;;;2.70;2.20;;;;;;;15.53;36.58;92750.88;5054265;28;20454;-89
2022/04/03 00:17:43;;;;;;;2.70;2.13;;;;;;;15.55;36.77;92753.81;5043228;28;20052;-88
2022/04/03 00:20:09;;;;;;;3.15;2.25;;;;;;;15.54;36.52;92747.63;5013019;28;20045;-88
2022/04/03 00:22:34;;;;;;;2.65;2.20;;;;;;;15.55;36.57;92757.28;5013285;28;20041;-88
2022/04/03 00:25:00;;;;;;;2.55;2.20;;;;;;;15.54;36.55;92757.78;4997047;28;20438;-90
2022/04/03 00:27:26;;;;;;;3.35;2.22;;;;;;;15.52;36.60;92752.84;5045100;28;20040;-88
2022/04/03 00:29:51;;;;;;;5.65;2.17;;;;;;;15.55;36.78;92765.47;4996823;28;20029;-89
2022/04/03 00:32:16;;;;;;;3.13;2.22;;;;;;;15.56;36.55;92758.78;5012873;28;20041;-89
2022/04/03 00:34:42;;;;;;;3.40;2.70;;;;;;;15.53;36.38;92756.31;4997127;28;20037;-88
2022/04/03 00:37:07;;;;;;;2.78;2.33;;;;;;;15.52;36.43;92755.56;4996820;28;20045;-89
2022/04/03 00:39:33;;;;;;;2.90;2.10;;;;;;;15.53;36.60;92759.03;4996302;28;20406;-89
2022/04/03 00:41:58;;;;;;;2.00;1.60;;;;;;;15.58;36.31;92767.19;5012342;28;20404;-89
2022/04/03 00:44:24;;;;;;;2.95;2.10;;;;;;;15.54;36.58;92763.97;4996275;28;20037;-88
2022/04/03 00:46:49;;;;;;;2.05;1.80;;;;;;;15.53;36.39;92757.06;4981849;28;20056;-88
2022/04/03 00:49:15;;;;;;;2.67;2.20;;;;;;;15.54;36.42;92758.53;5011049;28;20037;-88
2022/04/03 00:51:41;;;;;;;3.42;2.17;;;;;;;15.54;36.66;92755.81;5032083;28;20525;-89
2022/04/03 00:54:07;;;;;;;4.47;2.60;;;;;;;15.55;36.51;92762.72;5019284;28;20102;-89
2022/04/03 00:56:33;;;;;;;3.13;2.70;;;;;;;15.55;36.65;92762.00;5040947;28;20033;-88
2022/04/03 00:58:58;;;;;;;2.67;1.85;;;;;;;15.54;36.35;92763.97;5000651;28;20522;-88
2022/04/03 01:01:24;;;;;;;2.50;1.90;;;;;;;15.55;36.45;92768.19;5014158;28;20378;-88
2022/04/03 01:03:49;;;;;;;2.00;1.77;;;;;;;15.53;36.44;92769.94;5054738;28;20040;-88
2022/04/03 01:06:15;;;;;;;2.58;2.10;;;;;;;15.53;36.43;92765.22;5054096;28;20039;-88
2022/04/03 01:08:42;;;;;;;2.08;1.88;;;;;;;15.54;36.30;92765.97;5055380;28;20033;-89
2022/04/03 01:11:08;;;;;;;2.22;1.83;;;;;;;15.55;36.44;92768.19;5037451;28;20037;-88
2022/04/03 01:13:33;;;;;;;2.70;2.05;;;;;;;15.52;36.45;92768.44;5055223;28;20103;-89
2022/04/03 01:16:02;;;;;;;2.15;1.95;;;;;;;15.54;36.71;92768.69;5036326;28;20048;-88
2022/04/03 01:18:28;;;;;;;3.05;2.20;;;;;;;15.54;36.64;92782.31;5034534;28;20041;-88
2022/04/03 01:20:53;;;;;;;2.65;2.17;;;;;;;15.54;36.64;92777.59;5034598;28;20087;-89
2022/04/03 01:23:23;;;;;;;2.55;2.05;;;;;;;15.54;36.66;92777.59;5028759;28;20521;-89
2022/04/03 01:25:48;;;;;;;2.45;1.95;;;;;;;15.53;36.54;92772.66;5050381;28;20037;-88
2022/04/03 01:28:14;;;;;;;2.42;2.22;;;;;;;15.51;36.57;92772.41;5034419;28;20064;-88
2022/04/03 01:30:39;;;;;;;2.67;2.30;;;;;;;15.52;36.60;92782.06;5034577;28;20040;-88
2022/04/03 01:33:07;;;;;;;2.63;1.95;;;;;;;15.53;36.43;92773.41;5033813;28;20040;-89
2022/04/03 01:35:33;;;;;;;2.25;2.05;;;;;;;15.52;36.32;92780.09;5034701;28;20138;-89
2022/04/03 01:37:58;;;;;;;2.67;2.05;;;;;;;15.53;36.57;92767.94;5035508;28;20052;-89
2022/04/03 01:40:24;;;;;;;3.67;1.50;;;;;;;15.53;36.40;92778.84;5050157;28;20490;-88
2022/04/03 01:42:50;;;;;;;2.55;2.15;;;;;;;15.53;36.34;92781.56;5034037;28;20049;-88
2022/04/03 01:45:15;;;;;;;2.40;2.15;;;;;;;15.53;36.60;92786.28;5052382;28;20048;-89
2022/04/03 01:47:41;;;;;;;2.78;2.17;;;;;;;15.53;36.47;92783.56;5071781;28;20515;-89
2022/04/03 01:50:07;;;;;;;2.38;1.95;;;;;;;15.54;36.33;92785.03;5036908;28;20052;-88
2022/04/03 01:52:32;;;;;;;2.53;1.92;;;;;;;15.52;36.51;92784.78;5054699;28;20490;-88
2022/04/03 01:54:59;;;;;;;2.55;1.92;;;;;;;15.53;36.59;92784.28;5053490;28;20037;-88
2022/04/03 01:57:25;;;;;;;1.83;1.60;;;;;;;15.53;36.60;92791.72;5033712;28;20029;-89
2022/04/03 01:59:50;;;;;;;2.78;2.00;;;;;;;15.56;36.56;92801.63;5051792;28;20394;-88
2022/04/03 02:02:16;;;;;;;3.28;2.10;;;;;;;15.55;36.55;92786.50;5033296;28;20048;-89
2022/04/03 02:04:41;;;;;;;2.78;1.83;;;;;;;15.54;36.50;92793.94;5016352;28;20045;-89
2022/04/03 02:07:07;;;;;;;1.98;1.60;;;;;;;15.55;36.57;92789.97;5032750;28;20037;-88
2022/04/03 02:09:32;;;;;;;2.05;1.70;;;;;;;15.53;36.46;92791.72;5033325;28;20036;-89
2022/04/03 02:11:58;;;;;;;2.22;1.75;;;;;;;15.55;36.29;92792.69;5033520;28;20317;-88
2022/04/03 02:14:27;;;;;;;2.60;2.05;;;;;;;15.54;36.63;92793.94;5033183;28;20044;-89
2022/04/03 02:16:56;;;;;;;2.03;1.60;;;;;;;15.56;36.31;92796.94;5034010;28;20045;-88
2022/04/03 02:19:21;;;;;;;2.17;1.73;;;;;;;15.54;36.42;92796.66;5033636;28;20067;-89
2022/04/03 02:21:47;;;;;;;2.08;1.83;;;;;;;15.54;36.39;92796.66;5018467;28;20036;-88
2022/04/03 02:24:12;;;;;;;3.20;2.15;;;;;;;15.52;36.59;92792.97;5033975;28;20059;-89
2022/04/03 02:26:38;;;;;;;1.77;1.65;;;;;;;15.52;36.73;92806.59;5069157;28;20059;-89
2022/04/03 02:29:03;;;;;;;2.08;1.88;;;;;;;15.53;36.51;92799.91;5035837;28;20551;-87
2022/04/03 02:31:29;;;;;;;2.75;1.92;;;;;;;15.53;36.39;92799.91;5051978;28;20041;-88
2022/04/03 02:33:54;;;;;;;2.78;1.77;;;;;;;15.53;36.59;92808.06;5069822;28;20036;-89
2022/04/03 02:36:20;;;;;;;2.72;1.65;;;;;;;15.54;36.36;92812.28;5053027;28;20402;-89
2022/04/03 02:38:45;;;;;;;2.30;1.75;;;;;;;15.53;36.44;92805.34;5052573;28;20040;-89
2022/04/03 02:41:12;;;;;;;1.73;1.58;;;;;;;15.51;36.45;92810.56;5051791;28;20268;-88
2022/04/03 02:43:37;;;;;;;2.40;1.75;;;;;;;15.50;36.37;92804.38;5052700;28;20067;-89
2022/04/03 02:46:03;;;;;;;1.83;1.65;;;;;;;15.50;36.54;92811.78;5059078;28;20522;-89
2022/04/03 02:48:28;;;;;;;1.88;1.58;;;;;;;15.52;36.19;92812.78;5016581;28;20510;-89
2022/04/03 02:50:53;;;;;;;2.00;1.60;;;;;;;15.53;36.69;92814.25;5032751;28;20044;-88
2022/04/03 02:53:19;;;;;;;1.77;1.55;;;;;;;15.50;36.39;92815.25;5032542;28;20040;-88
2022/04/03 02:55:44;;;;;;;2.53;1.90;;;;;;;15.54;36.57;92817.72;5032677;28;20407;-89
2022/04/03 02:58:11;;;;;;;2.50;1.50;;;;;;;15.55;36.50;92819.19;5016343;28;20041;-89
2022/04/03 03:00:37;;;;;;;3.85;1.88;;;;;;;15.53;36.46;92816.25;5031684;28;20076;-89
2022/04/03 03:03:04;;;;;;;2.60;1.85;;;;;;;15.51;36.45;92819.47;5034256;28;20502;-88
2022/04/03 03:05:30;;;;;;;1.90;1.65;;;;;;;15.52;36.60;92818.22;5036003;28;20329;-88
2022/04/03 03:07:55;;;;;;;2.97;2.15;;;;;;;15.51;36.31;92827.63;5035234;28;20035;-88
2022/04/03 03:10:22;;;;;;;1.98;1.70;;;;;;;15.52;36.37;92818.22;5035102;28;20044;-89
2022/04/03 03:12:47;;;;;;;3.50;1.88;;;;;;;15.52;36.54;92825.66;5035597;28;20076;-89
2022/04/03 03:15:13;;;;;;;2.28;1.80;;;;;;;15.54;36.23;92829.34;5051882;28;20544;-88
2022/04/03 03:17:39;;;;;;;1.90;1.67;;;;;;;15.51;36.38;92830.38;5052679;28;20052;-88
2022/04/03 03:20:05;;;;;;;2.38;1.77;;;;;;;15.53;36.38;92833.31;5052758;28;20474;-89
2022/04/03 03:22:31;;;;;;;1.95;1.65;;;;;;;15.53;36.06;92821.69;5068803;28;20489;-88
2022/04/03 03:24:56;;;;;;;1.50;1.40;;;;;;;15.53;36.37;92827.88;5067981;28;20043;-89
2022/04/03 03:27:22;;;;;;;2.33;1.95;;;;;;;15.50;36.54;92828.88;5050905;28;20029;-88
2022/04/03 03:29:47;;;;;;;2.20;1.70;;;;;;;15.52;36.53;92820.22;5052072;28;20444;-88
2022/04/03 03:32:13;;;;;;;2.25;1.90;;;;;;;15.52;36.46;92822.94;5048180;28;20032;-88
2022/04/03 03:34:38;;;;;;;3.33;2.08;;;;;;;15.52;36.20;92828.38;5054988;28;20055;-88
2022/04/03 03:37:03;;;;;;;2.00;1.65;;;;;;;15.52;36.46;92831.09;5054384;28;20036;-89
2022/04/03 03:39:29;;;;;;;2.53;1.75;;;;;;;15.52;36.27;92831.84;5048589;28;20052;-88
2022/04/03 03:41:55;;;;;;;1.90;1.70;;;;;;;15.50;36.64;92828.13;5015062;28;20072;-88
2022/04/03 03:44:21;;;;;;;2.28;1.83;;;;;;;15.50;36.37;92820.72;5047970;28;20120;-88
2022/04/03 03:46:46;;;;;;;2.20;1.65;;;;;;;15.51;36.35;92832.34;5031663;28;20037;-88
2022/04/03 03:49:14;;;;;;;1.98;1.80;;;;;;;15.53;36.44;92835.31;5064685;28;20398;-88
2022/04/03 03:51:39;;;;;;;1.52;1.40;;;;;;;15.50;36.31;92831.59;5032627;28;20041;-88
2022/04/03 03:54:05;;;;;;;3.30;1.73;;;;;;;15.50;36.47;92847.94;5049002;28;20165;-88
2022/04/03 03:56:30;;;;;;;1.85;1.65;;;;;;;15.48;36.46;92845.00;5048245;28;20091;-88
2022/04/03 03:58:55;;;;;;;2.25;1.80;;;;;;;15.52;36.25;92836.56;5065433;28;20033;-88
2022/04/03 04:01:21;;;;;;;2.13;1.90;;;;;;;15.51;36.32;92846.72;5031302;28;20052;-88
2022/04/03 04:03:47;;;;;;;2.80;1.60;;;;;;;15.52;36.50;92850.91;5045534;28;20044;-88
2022/04/03 04:06:12;;;;;;;2.97;2.15;;;;;;;15.52;36.63;92861.06;5067368;28;20044;-88
2022/04/03 04:08:38;;;;;;;2.42;1.80;;;;;;;15.51;36.42;92862.31;5068564;28;20041;-89
2022/04/03 04:11:03;;;;;;;1.67;1.50;;;;;;;15.52;36.44;92866.50;5067529;28;20494;-88
2022/04/03 04:13:28;;;;;;;2.63;1.83;;;;;;;15.55;36.26;92876.41;5050648;28;20041;-90
2022/04/03 04:15:54;;;;;;;3.00;1.98;;;;;;;15.52;36.10;92869.25;5051513;28;20124;-89
2022/04/03 04:18:19;;;;;;;2.30;1.80;;;;;;;15.50;36.28;92869.75;5050695;28;20032;-89
2022/04/03 04:20:45;;;;;;;2.20;2.00;;;;;;;15.53;36.37;92881.63;5052078;28;20032;-89
2022/04/03 04:23:10;;;;;;;3.08;2.08;;;;;;;15.50;36.27;92879.91;5050350;28;20033;-89
2022/04/03 04:25:36;;;;;;;1.67;1.50;;;;;;;15.51;36.54;92889.56;5030340;28;20499;-89
2022/04/03 04:28:02;;;;;;;2.10;1.90;;;;;;;15.52;36.36;92891.78;5014008;28;20037;-88
2022/04/03 04:30:28;;;;;;;1.70;1.45;;;;;;;15.52;36.07;92880.88;5030482;28;20170;-88
2022/04/03 04:32:53;;;;;;;1.50;1.40;;;;;;;15.53;36.30;92892.50;5030166;28;20033;-88
2022/04/03 04:35:19;;;;;;;2.40;1.80;;;;;;;15.52;36.09;92891.03;5032995;28;20037;-88
2022/04/03 04:37:44;;;;;;;2.10;1.65;;;;;;;15.53;36.07;92897.97;5051380;28;20499;-89
2022/04/03 04:40:10;;;;;;;1.92;1.73;;;;;;;15.56;36.51;92903.19;5063488;28;20370;-89
2022/04/03 04:42:36;;;;;;;1.67;1.42;;;;;;;15.52;36.42;92901.94;5017051;28;20165;-88
2022/04/03 04:45:02;;;;;;;2.08;1.60;;;;;;;15.52;36.19;92901.94;5031666;28;20437;-88
2022/04/03 04:47:28;;;;;;;2.03;1.85;;;;;;;15.52;36.39;92901.94;5050800;28;20036;-88
2022/04/03 04:49:53;;;;;;;2.67;1.90;;;;;;;15.53;36.34;92906.13;5051131;28;20098;-88
2022/04/03 04:52:18;;;;;;;2.05;1.80;;;;;;;15.52;36.50;92904.66;5034602;28;20041;-88
2022/04/03 04:54:44;;;;;;;2.17;1.98;;;;;;;15.52;36.30;92918.28;5034723;28;20039;-89
2022/04/03 04:57:09;;;;;;;2.10;1.70;;;;;;;15.53;36.17;92909.59;5050805;28;20410;-88
2022/04/03 04:59:35;;;;;;;1.95;1.75;;;;;;;15.54;36.41;92927.44;5031735;28;20099;-88
2022/04/03 05:02:00;;;;;;;2.92;1.63;;;;;;;15.55;36.02;92915.28;5015020;28;20037;-88
2022/04/03 05:04:26;;;;;;;1.90;1.80;;;;;;;15.53;36.45;92919.75;5030656;28;20426;-88
2022/04/03 05:06:52;;;;;;;2.65;1.60;;;;;;;15.53;36.27;92925.19;5014697;28;20116;-88
2022/04/03 05:09:18;;;;;;;2.50;1.90;;;;;;;15.53;36.24;92925.19;5045553;28;20398;-88
2022/04/03 05:11:43;;;;;;;2.42;1.85;;;;;;;15.54;36.39;92927.44;5031737;28;20044;-88
2022/04/03 05:14:10;;;;;;;2.15;1.70;;;;;;;15.55;36.13;92930.88;5031211;28;20041;-89
2022/04/03 05:16:35;;;;;;;1.95;1.63;;;;;;;15.53;36.56;92925.94;5031147;28;20033;-88
2022/04/03 05:19:02;;;;;;;1.58;1.48;;;;;;;15.53;36.07;92934.13;5031916;28;20033;-88
2022/04/03 05:21:29;;;;;;;1.90;1.70;;;;;;;15.53;36.30;92928.66;5048271;28;20174;-89
2022/04/03 05:23:54;;;;;;;2.50;1.75;;;;;;;15.54;36.40;92932.13;5047754;28;20041;-89
2022/04/03 05:26:20;;;;;;;2.53;2.08;;;;;;;15.57;36.20;92928.44;5047122;28;20056;-88
2022/04/03 05:28:45;;;;;;;2.20;1.88;;;;;;;15.55;36.33;92939.81;5031200;28;20288;-88
2022/04/03 05:31:11;;;;;;;1.63;1.52;;;;;;;15.53;36.37;92936.84;5030632;28;20051;-88
2022/04/03 05:33:37;;;;;;;2.30;1.88;;;;;;;15.54;36.19;92937.56;5030986;28;20045;-88
2022/04/03 05:36:04;;;;;;;1.70;1.60;;;;;;;15.53;36.32;92945.00;5034357;28;20045;-89
2022/04/03 05:38:30;;;;;;;1.80;1.58;;;;;;;15.55;36.24;92945.25;5048198;28;20132;-89
2022/04/03 05:40:55;;;;;;;2.22;1.83;;;;;;;15.55;36.04;92947.97;5045150;28;20044;-88
2022/04/03 05:43:21;;;;;;;2.38;1.80;;;;;;;15.54;36.15;92943.78;5050820;28;20041;-89
2022/04/03 05:45:46;;;;;;;2.17;1.77;;;;;;;15.56;36.17;92962.38;5055608;28;20083;-89
2022/04/03 05:48:12;;;;;;;2.13;1.63;;;;;;;15.55;36.08;92963.56;5054110;28;20040;-88
2022/04/03 05:50:38;;;;;;;2.08;1.48;;;;;;;15.59;36.23;92964.81;5038788;28;20502;-89
2022/04/03 05:53:04;;;;;;;2.70;2.05;;;;;;;15.59;36.33;92967.53;5072044;28;20033;-89
2022/04/03 05:55:29;;;;;;;1.65;1.33;;;;;;;15.63;36.19;92967.25;5071321;28;20051;-88
2022/04/03 05:57:55;;;;;;;1.83;1.67;;;;;;;15.59;36.31;92970.25;5071942;28;20474;-88
2022/04/03 06:00:21;;;;;;;1.95;1.73;;;;;;;15.61;36.20;92967.03;5054341;28;20452;-89
2022/04/03 06:02:50;;;;;;;2.95;1.88;;;;;;;15.61;36.20;92975.19;5055557;28;20041;-88
2022/04/03 06:05:26;;;;;;;2.15;1.80;;;;;;;15.60;35.87;92973.72;5038298;28;20036;-87
2022/04/03 06:07:51;;;;;;;2.42;1.85;;;;;;;15.62;35.92;92980.16;5050664;28;20360;-88
2022/04/03 06:10:18;;;;;;;2.33;1.83;;;;;;;15.59;36.00;92981.16;5034458;28;20033;-89
2022/04/03 06:12:55;;;;;;;2.40;2.15;;;;;;;15.58;36.18;92978.94;5074908;28;20052;-88
2022/04/03 06:15:23;;;;;;;1.73;1.60;;;;;;;15.63;36.25;92986.34;5054287;28;20096;-89
2022/04/03 06:17:49;;;;;;;2.15;1.88;;;;;;;15.65;36.19;92986.56;5054581;28;20394;-89
2022/04/03 06:20:15;;;;;;;1.80;1.70;;;;;;;15.62;36.07;93001.19;5055722;28;20039;-89
2022/04/03 06:22:40;;;;;;;1.70;1.60;;;;;;;15.63;36.19;92992.53;5042478;28;20029;-89
2022/04/03 06:25:07;;;;;;;2.00;1.80;;;;;;;15.63;35.96;92997.22;5033884;28;20458;-90
2022/04/03 06:27:32;;;;;;;2.00;1.70;;;;;;;15.62;35.88;93006.66;5018334;28;20142;-90
2022/04/03 06:29:58;;;;;;;1.75;1.60;;;;;;;15.63;36.14;93008.88;5035012;28;20601;-89
2022/04/03 06:32:23;;;;;;;1.90;1.70;;;;;;;15.65;36.19;93009.13;5018238;28;20037;-89
2022/04/03 06:34:49;;;;;;;1.58;1.40;;;;;;;15.65;36.06;93016.53;5035129;28;20045;-89
2022/04/03 06:37:14;;;;;;;1.65;1.55;;;;;;;15.68;36.22;93015.53;5034142;28;20056;-89
2022/04/03 06:39:39;;;;;;;2.20;1.70;;;;;;;15.68;36.09;93015.53;5022757;28;20041;-89
2022/04/03 06:42:05;;;;;;;1.85;1.40;;;;;;;15.66;36.19;93026.22;5054213;28;20055;-89
2022/04/03 06:44:31;;;;;;;1.80;1.50;;;;;;;15.66;36.27;93020.75;5054427;28;20064;-89
2022/04/03 06:46:56;;;;;;;1.77;1.60;;;;;;;15.66;36.20;93023.47;5037972;28;20045;-89
2022/04/03 06:49:22;;;;;;;2.22;1.88;;;;;;;15.65;35.85;93025.47;5034510;28;20052;-90
2022/04/03 06:51:47;;;;;;;2.15;1.60;;;;;;;15.65;36.08;93028.19;5042361;28;20050;-89
2022/04/03 06:54:13;;;;;;;1.75;1.60;;;;;;;15.66;35.98;93026.94;5058311;28;20032;-89
2022/04/03 06:56:38;;;;;;;2.03;1.83;;;;;;;15.62;36.28;93036.63;5057710;28;20118;-89
2022/04/03 06:59:04;;;;;;;1.90;1.60;;;;;;;15.66;36.18;93035.13;5051195;28;20041;-89
2022/04/03 07:01:29;;;;;;;2.20;1.85;;;;;;;15.66;36.16;93037.09;5051762;28;20064;-90
2022/04/03 07:03:54;;;;;;;2.08;1.83;;;;;;;15.69;35.98;93034.13;5051177;28;20284;-89
2022/04/03 07:06:20;;;;;;;3.00;1.70;;;;;;;15.70;35.83;93038.34;5049697;28;20037;-88
2022/04/03 07:08:48;;;;;;;2.08;1.88;;;;;;;15.67;36.09;93041.31;5050403;28;20036;-89
2022/04/03 07:11:14;;;;;;;2.05;1.60;;;;;;;15.69;36.16;93047.00;5051249;28;20040;-89
2022/04/03 07:13:39;;;;;;;2.00;1.80;;;;;;;15.64;36.19;93040.34;5051994;28;20041;-89
2022/04/03 07:16:05;;;;;;;1.55;1.45;;;;;;;15.69;36.08;93047.00;5052107;28;20045;-89
2022/04/03 07:18:31;;;;;;;2.03;1.83;;;;;;;15.68;35.80;93050.97;5055888;28;20385;-89
2022/04/03 07:20:57;;;;;;;1.92;1.75;;;;;;;15.69;36.02;93047.75;5055390;28;20063;-89
2022/04/03 07:23:25;;;;;;;2.15;1.95;;;;;;;15.68;36.02;93056.41;5070263;28;20043;-89
2022/04/03 07:25:50;;;;;;;2.00;1.83;;;;;;;15.71;35.91;93060.88;5053951;28;20037;-88
2022/04/03 07:28:15;;;;;;;2.10;1.90;;;;;;;15.71;36.22;93063.59;5052762;28;20040;-89
2022/04/03 07:30:42;;;;;;;1.95;1.70;;;;;;;15.66;36.05;93058.91;5037886;28;20040;-89
2022/04/03 07:33:07;;;;;;;2.00;1.77;;;;;;;15.67;36.22;93063.09;5054184;28;20037;-89
2022/04/03 07:35:33;;;;;;;2.35;1.65;;;;;;;15.68;36.15;93064.59;5064227;28;20040;-88
2022/04/03 07:37:58;;;;;;;3.00;1.80;;;;;;;15.67;36.04;93063.84;5034971;28;20033;-90
2022/04/03 07:40:24;;;;;;;1.70;1.60;;;;;;;15.73;35.79;93061.13;5033550;28;20044;-89
2022/04/03 07:42:51;;;;;;;2.38;2.17;;;;;;;15.74;35.82;93063.34;5017417;28;20501;-89
2022/04/03 07:45:16;;;;;;;2.95;1.90;;;;;;;15.72;36.28;93065.09;5029136;28;20722;-89
2022/04/03 07:47:49;;;;;;;1.92;1.70;;;;;;;15.74;36.09;93073.50;5052114;28;20036;-89
2022/04/03 07:50:16;;;;;;;1.63;1.52;;;;;;;15.70;35.94;93073.00;5073121;28;20033;-90
2022/04/03 07:52:41;;;;;;;2.20;1.85;;;;;;;15.69;35.90;93075.00;5070902;28;20048;-89
2022/04/03 07:55:10;;;;;;;2.25;2.03;;;;;;;15.72;36.00;93078.72;5070461;28;20082;-89
2022/04/03 07:57:38;;;;;;;1.80;1.70;;;;;;;15.74;35.73;93078.94;5069696;28;20048;-89
2022/04/03 08:00:06;;;;;;;2.08;1.88;;;;;;;15.73;36.00;93078.22;5069763;28;20040;-89
2022/04/03 08:02:32;;;;;;;2.13;1.73;;;;;;;15.76;35.96;93085.38;5033978;28;20068;-89
2022/04/03 08:04:58;;;;;;;2.10;1.90;;;;;;;15.77;35.88;93088.84;5033930;28;20104;-90
2022/04/03 08:07:36;;;;;;;1.50;1.40;;;;;;;15.74;35.99;93096.03;5048656;28;20253;-89
2022/04/03 08:10:05;;;;;;;2.30;2.10;;;;;;;15.79;36.21;93091.06;5049598;28;20542;-88
2022/04/03 08:12:31;;;;;;;1.92;1.73;;;;;;;15.75;36.09;93094.81;5032846;28;20041;-89
2022/04/03 08:14:57;;;;;;;1.67;1.58;;;;;;;15.82;35.62;93100.94;5034480;28;20110;-89
2022/04/03 08:17:22;;;;;;;1.92;1.73;;;;;;;15.76;35.93;93095.53;5016553;28;20041;-89
2022/04/03 08:19:47;;;;;;;2.53;1.88;;;;;;;15.75;35.81;93100.25;5051786;28;20033;-89
2022/04/03 08:22:13;;;;;;;2.10;1.90;;;;;;;15.82;35.93;93109.13;5049962;28;20033;-90
2022/04/03 08:24:38;;;;;;;2.35;1.90;;;;;;;15.79;35.66;93100.00;5051341;28;20057;-89
2022/04/03 08:27:05;;;;;;;1.98;1.70;;;;;;;15.81;35.80;93104.91;5017140;28;20083;-89
2022/04/03 08:29:32;;;;;;;2.40;1.70;;;;;;;15.80;35.96;93106.94;5019267;28;20037;-90
2022/04/03 08:31:57;;;;;;;2.58;1.83;;;;;;;15.81;36.06;93110.38;5035674;28;20098;-90
2022/04/03 08:34:23;;;;;;;2.85;2.00;;;;;;;15.77;35.86;93114.13;5018986;28;20040;-90
2022/04/03 08:36:48;;;;;;;1.92;1.80;;;;;;;15.80;36.03;93106.94;5051630;28;20048;-89
2022/04/03 08:39:14;;;;;;;2.30;2.10;;;;;;;15.83;35.97;93113.34;5017927;28;20048;-89
2022/04/03 08:41:42;;;;;;;1.95;1.77;;;;;;;15.85;35.94;93116.31;5018605;28;20712;-89
2022/04/03 08:44:07;;;;;;;1.70;1.50;;;;;;;15.83;35.88;93118.78;5034124;28;20041;-88
2022/04/03 08:46:33;;;;;;;1.92;1.58;;;;;;;15.85;35.59;93117.06;5045292;28;20044;-89
2022/04/03 08:49:00;;;;;;;3.08;2.50;;;;;;;15.84;35.90;93120.28;5051057;28;20037;-89
2022/04/03 08:51:27;;;;;;;2.10;1.90;;;;;;;15.85;35.99;93122.50;5068912;28;20059;-89
2022/04/03 08:53:53;;;;;;;2.03;1.83;;;;;;;15.82;35.75;93136.38;5069581;28;20405;-89
2022/04/03 08:56:19;;;;;;;2.90;1.65;;;;;;;15.88;35.84;93131.66;5018606;28;20060;-89
2022/04/03 08:58:44;;;;;;;1.83;1.67;;;;;;;15.89;35.75;93138.59;5033992;28;20045;-89
2022/04/03 09:01:09;;;;;;;1.50;1.40;;;;;;;15.90;35.93;93131.91;5031333;28;20372;-89
2022/04/03 09:03:35;;;;;;;1.88;1.77;;;;;;;15.91;35.80;93142.31;5017861;28;20052;-88
2022/04/03 09:06:16;;;;;;;1.75;1.65;;;;;;;15.89;35.86;93135.88;5034937;28;20033;-89
2022/04/03 09:08:42;;;;;;;2.28;1.80;;;;;;;15.90;35.55;93138.09;5034041;28;20036;-89
2022/04/03 09:11:08;;;;;;;2.10;1.90;;;;;;;15.88;35.58;93131.66;5017575;28;20036;-89
2022/04/03 09:13:34;;;;;;;2.25;2.05;;;;;;;15.90;35.79;93143.56;5018439;28;20037;-88
2022/04/03 09:16:00;;;;;;;2.17;1.80;;;;;;;15.89;35.74;93138.59;5021935;28;20128;-89
2022/04/03 09:18:44;;;;;;;1.88;1.67;;;;;;;15.87;36.01;93141.81;5037663;28;20051;-88
2022/04/03 09:21:22;;;;;;;2.05;1.80;;;;;;;15.89;35.83;93139.34;5022628;28;20068;-88
2022/04/03 09:24:07;;;;;;;1.70;1.60;;;;;;;15.88;35.86;93150.75;5054219;28;20048;-89
2022/04/03 09:26:33;;;;;;;1.92;1.73;;;;;;;15.91;35.86;93147.75;5055387;28;20041;-89
2022/04/03 09:29:08;;;;;;;2.20;1.75;;;;;;;15.91;35.98;93152.47;5073996;28;20139;-89
2022/04/03 09:31:33;;;;;;;2.38;1.80;;;;;;;15.88;35.75;93153.47;5074789;28;20055;-89
2022/04/03 09:34:00;;;;;;;2.22;1.80;;;;;;;15.89;35.67;93152.22;5075987;28;20032;-88
2022/04/03 09:36:30;;;;;;;2.50;2.00;;;;;;;15.88;35.94;93158.91;5043330;28;20025;-89
2022/04/03 09:39:24;;;;;;;1.70;1.60;;;;;;;15.89;36.01;93158.44;5038207;28;20083;-89
2022/04/03 09:42:03;;;;;;;2.22;1.92;;;;;;;15.92;35.86;93156.69;5040085;28;20448;-89
2022/04/03 09:44:42;;;;;;;2.10;1.90;;;;;;;15.91;36.04;93166.84;5021667;28;20055;-89
2022/04/03 09:47:14;;;;;;;2.08;1.88;;;;;;;15.90;35.92;93159.16;5052689;28;20048;-89
2022/04/03 09:49:45;;;;;;;2.30;2.10;;;;;;;15.91;35.98;93160.66;5055451;28;20044;-89
2022/04/03 09:52:10;;;;;;;1.88;1.77;;;;;;;15.92;35.97;93162.88;5020825;28;20067;-88
2022/04/03 09:54:39;;;;;;;2.00;1.77;;;;;;;15.90;35.79;93165.34;5038706;28;20041;-89
2022/04/03 09:57:21;;;;;;;1.80;1.70;;;;;;;15.89;36.16;93160.41;5039158;28;20033;-88
2022/04/03 09:59:49;;;;;;;2.30;2.10;;;;;;;15.90;35.94;93167.34;5060709;28;20060;-89
2022/04/03 10:02:16;;;;;;;2.22;2.03;;;;;;;15.94;35.86;93168.56;5047150;28;20490;-90
2022/04/03 10:04:45;;;;;;;1.85;1.60;;;;;;;15.95;35.57;93169.31;5059005;28;20044;-88
2022/04/03 10:07:13;;;;;;;2.08;1.88;;;;;;;15.91;36.06;93171.56;5058066;28;20045;-88
2022/04/03 10:09:44;;;;;;;2.30;1.95;;;;;;;15.92;35.73;93168.34;5041237;28;20052;-89
2022/04/03 10:12:09;;;;;;;1.92;1.67;;;;;;;15.90;35.92;93170.81;5057462;28;20086;-89
2022/04/03 10:14:35;;;;;;;2.30;1.80;;;;;;;15.93;35.99;93177.25;5057530;28;20037;-89
2022/04/03 10:17:00;;;;;;;1.98;1.63;;;;;;;15.94;35.81;93176.75;5069570;28;20036;-88
2022/04/03 10:19:26;;;;;;;2.20;2.00;;;;;;;15.96;35.80;93171.53;5077222;28;20032;-89
2022/04/03 10:21:54;;;;;;;2.22;1.98;;;;;;;15.98;35.97;93158.16;5052380;28;20483;-88
2022/04/03 10:24:20;;;;;;;2.38;1.88;;;;;;;15.95;36.00;93169.31;5051963;28;20044;-89
2022/04/03 10:26:56;;;;;;;1.70;1.60;;;;;;;15.94;35.57;93165.09;5034654;28;20080;-89
2022/04/03 10:29:21;;;;;;;1.80;1.70;;;;;;;15.98;35.91;93163.63;5052305;28;20052;-88
2022/04/03 10:31:55;;;;;;;2.10;1.90;;;;;;;15.96;35.82;93163.38;5072519;28;20036;-89
2022/04/03 10:34:21;;;;;;;2.10;1.90;;;;;;;15.98;35.90;93169.06;5038534;28;20047;-88
2022/04/03 10:36:47;;;;;;;1.95;1.67;;;;;;;15.97;35.77;93173.03;5055893;28;20037;-88
2022/04/03 10:39:13;;;;;;;2.08;1.65;;;;;;;15.97;35.82;93170.31;5072148;28;20115;-89
2022/04/03 10:41:40;;;;;;;2.05;1.85;;;;;;;15.97;35.76;93172.28;5072643;28;20534;-89
2022/04/03 10:44:19;;;;;;;1.70;1.60;;;;;;;15.98;35.83;93179.97;5006893;28;1389082;-88
2022/04/03 10:47:03;;;;;;;2.00;1.80;;;;;;;16.00;35.69;93169.31;5059938;28;20122;-88
2022/04/03 10:49:41;;;;;;;2.13;1.92;;;;;;;16.00;35.76;93172.03;5053289;28;20048;-89
2022/04/03 10:52:09;;;;;;;2.10;1.90;;;;;;;16.01;36.01;93183.69;5020408;28;20041;-89
2022/04/03 10:54:42;;;;;;;2.20;2.00;;;;;;;16.02;35.90;93174.25;5045896;28;20040;-88
2022/04/03 10:57:32;;;;;;;2.03;1.83;;;;;;;16.01;35.83;93170.78;5037438;28;20083;-89
2022/04/03 11:00:28;;;;;;;2.10;1.90;;;;;;;16.00;35.71;93177.50;5070271;28;20044;-89
2022/04/03 11:02:57;;;;;;;1.73;1.50;;;;;;;16.03;35.86;93183.91;5053088;28;20068;-89
2022/04/03 11:05:24;;;;;;;2.20;2.00;;;;;;;16.03;35.87;93170.25;5070580;28;20103;-89
2022/04/03 11:07:54;;;;;;;2.38;1.95;;;;;;;16.00;35.62;93176.75;5055624;28;20091;-89
2022/04/03 11:10:48;;;;;;;2.05;1.73;;;;;;;16.00;35.81;93174.75;5070430;28;20029;-89
2022/04/03 11:13:14;;;;;;;1.70;1.60;;;;;;;16.02;35.63;93172.25;5055056;28;20118;-88
2022/04/03 11:15:45;;;;;;;1.70;1.60;;;;;;;16.00;36.01;93174.03;5037717;28;20407;-88
2022/04/03 11:18:29;;;;;;;2.10;1.90;;;;;;;16.01;35.74;93178.22;5053831;28;20128;-89
2022/04/03 11:21:30;;;;;;;2.08;1.85;;;;;;;16.01;35.76;93172.78;5071503;28;20105;-88
2022/04/03 11:24:11;;;;;;;1.70;1.60;;;;;;;16.02;35.96;93179.72;5036397;28;20182;-88
2022/04/03 11:26:37;;;;;;;;;;;;;;;16.03;35.99;93175.72;5052910;28;20497;-89
2022/04/03 11:29:04;;;;;;;1.90;1.33;;;;;;;16.05;35.92;93181.41;5052669;28;20363;-89
2022/04/03 11:31:30;;;;;;;2.03;1.83;;;;;;;16.01;35.74;93176.25;5051845;28;20052;-88
2022/04/03 11:33:56;;;;;;;2.22;1.88;;;;;;;16.01;35.71;93181.69;5040947;28;20495;-88